Time;durP1;ratioP1;P1;durP2;ratioP2;P2;SDS_P1;SDS_P2;PMS_P1;PMS_P2;Temp;Humidity;BMP_temperature;BMP_pressure;BME280_temperature;BME280_humidity;BME280_pressure;Samples;Min_cycle;Max_cycle;Signal;HPM_P1;HPM_P2
2022/11/16 00:02:18;;;;;;;65.95;30.77;;;;;;;9.43;80.52;97794.67;1742690;82;25454;-78
2022/11/16 00:04:45;;;;;;;56.00;29.12;;;;;;;9.43;80.44;97790.02;1742618;82;27420;-77
2022/11/16 00:07:11;;;;;;;50.12;27.42;;;;;;;9.43;80.51;97787.84;1742323;81;25431;-78
2022/11/16 00:09:38;;;;;;;51.15;28.75;;;;;;;9.44;80.46;97780.67;1742511;81;25621;-79
2022/11/16 00:12:08;;;;;;;51.53;26.82;;;;;;;9.46;80.44;97788.55;1742348;82;25648;-76
2022/11/16 00:14:36;;;;;;;58.87;33.07;;;;;;;9.45;80.44;97776.83;1742578;82;25721;-77
2022/11/16 00:17:03;;;;;;;53.08;31.82;;;;;;;9.47;80.41;97769.08;1742452;82;27390;-74
2022/11/16 00:19:30;;;;;;;46.37;25.37;;;;;;;9.46;80.37;97772.95;1742103;82;25630;-77
2022/11/16 00:21:57;;;;;;;51.55;27.93;;;;;;;9.44;80.27;97768.37;1742545;82;25713;-78
2022/11/16 00:24:23;;;;;;;35.55;20.62;;;;;;;9.40;80.30;97772.34;1742463;81;25727;-78
2022/11/16 00:26:53;;;;;;;38.13;20.68;;;;;;;9.35;80.26;97767.59;1742434;82;25605;-79
2022/11/16 00:29:23;;;;;;;40.25;22.58;;;;;;;9.31;80.25;97772.12;1742704;82;27536;-79
2022/11/16 00:31:51;;;;;;;45.28;23.27;;;;;;;9.29;80.31;97776.55;1742158;82;25637;-76
2022/11/16 00:34:18;;;;;;;41.98;22.45;;;;;;;9.26;80.34;97773.91;1742573;82;25621;-78
2022/11/16 00:36:45;;;;;;;47.55;28.95;;;;;;;9.24;80.40;97767.95;1742516;82;25602;-78
2022/11/16 00:39:14;;;;;;;46.15;25.62;;;;;;;9.22;80.33;97764.77;1742344;81;25484;-78
2022/11/16 00:41:41;;;;;;;55.30;28.40;;;;;;;9.22;80.34;97767.50;1742534;82;27473;-78
2022/11/16 00:44:09;;;;;;;57.75;31.12;;;;;;;9.23;80.38;97768.28;1742470;82;25677;-78
2022/11/16 00:46:44;;;;;;;47.85;26.12;;;;;;;9.24;80.52;97770.70;1721283;81;25689;-78
2022/11/16 00:49:15;;;;;;;52.00;27.52;;;;;;;9.25;80.64;97772.88;1719508;83;25551;-78
2022/11/16 00:51:49;;;;;;;55.25;28.85;;;;;;;9.24;80.80;97768.55;1719603;83;25686;-77
2022/11/16 00:54:21;;;;;;;45.55;24.45;;;;;;;9.25;80.86;97764.67;1719794;82;28319;-78
2022/11/16 00:56:54;;;;;;;50.95;26.80;;;;;;;9.23;80.93;97760.09;1719471;83;25696;-78
2022/11/16 00:59:25;;;;;;;54.67;29.27;;;;;;;9.22;80.90;97762.03;1719394;83;25613;-78
2022/11/16 01:01:51;;;;;;;66.10;31.85;;;;;;;9.22;80.89;97758.48;1719920;83;26157;-79
2022/11/16 01:04:18;;;;;;;67.08;34.27;;;;;;;9.21;80.95;97748.70;1719917;83;25468;-78
2022/11/16 01:06:44;;;;;;;56.58;30.20;;;;;;;9.19;81.00;97744.11;1719801;82;27923;-78
2022/11/16 01:09:11;;;;;;;55.85;29.60;;;;;;;9.15;81.21;97743.39;1719695;83;25502;-78
2022/11/16 01:14:22;;;;;;;63.48;30.92;;;;;;;9.09;81.37;97735.69;1719461;83;25420;-78
2022/11/16 01:16:49;;;;;;;52.25;27.75;;;;;;;9.04;81.50;97730.64;1719805;83;25436;-78
2022/11/16 01:19:16;;;;;;;52.00;27.17;;;;;;;9.02;81.48;97727.45;1719952;83;27543;-77
2022/11/16 01:21:42;;;;;;;52.98;28.30;;;;;;;9.02;81.50;97723.91;1719759;83;25658;-74
2022/11/16 01:24:09;;;;;;;59.08;33.02;;;;;;;9.02;81.52;97726.09;1719793;83;25591;-78
2022/11/16 01:26:35;;;;;;;50.60;27.27;;;;;;;9.04;81.58;97716.98;1719719;82;25444;-77
2022/11/16 01:29:02;;;;;;;51.95;27.25;;;;;;;9.08;81.56;97720.42;1720030;83;25437;-77
2022/11/16 01:31:29;;;;;;;57.43;30.43;;;;;;;9.10;81.60;97720.33;1719857;82;28020;-78
2022/11/16 01:33:55;;;;;;;54.88;27.42;;;;;;;9.12;81.57;97723.55;1719760;83;25594;-78
2022/11/16 01:36:21;;;;;;;55.92;29.15;;;;;;;9.14;81.82;97713.66;1719753;82;25609;-78
2022/11/16 01:38:48;;;;;;;56.88;28.80;;;;;;;9.18;81.54;97707.76;1719672;83;25454;-76
2022/11/16 01:41:18;;;;;;;51.90;27.48;;;;;;;9.23;81.66;97698.58;1719613;82;25709;-78
2022/11/16 01:44:05;;;;;;;49.90;26.07;;;;;;;9.31;81.76;97705.95;1719842;83;28291;-77
2022/11/16 01:46:32;;;;;;;44.85;26.10;;;;;;;9.37;81.78;97706.56;1735802;82;25689;-78
2022/11/16 01:49:06;;;;;;;45.85;24.77;;;;;;;9.31;81.68;97694.20;1742278;82;25500;-75
2022/11/16 01:51:34;;;;;;;44.10;25.68;;;;;;;9.31;81.89;97694.20;1742388;82;25443;-75
2022/11/16 01:54:04;;;;;;;50.45;27.07;;;;;;;9.25;81.76;97699.06;1742544;81;25620;-74
2022/11/16 01:56:32;;;;;;;52.88;28.50;;;;;;;9.21;81.91;97699.48;1742761;82;27630;-77
2022/11/16 01:59:00;;;;;;;55.88;30.00;;;;;;;9.20;82.16;97688.30;1742351;81;25447;-76
2022/11/16 02:01:26;;;;;;;62.30;32.10;;;;;;;9.18;81.95;97690.58;1742264;82;25673;-78
2022/11/16 02:03:53;;;;;;;57.03;32.38;;;;;;;9.15;81.83;97683.26;1742421;82;25858;-77
2022/11/16 02:06:47;;;;;;;51.45;26.93;;;;;;;9.16;81.85;97679.97;1742280;82;25416;-78
2022/11/16 02:12:41;;;;;;;52.78;27.37;;;;;;;9.09;81.68;97675.00;1742105;82;25416;-76
2022/11/16 02:15:25;;;;;;;45.63;26.33;;;;;;;9.03;82.05;97682.59;1731529;82;25470;-75
2022/11/16 02:18:22;;;;;;;49.60;26.50;;;;;;;9.12;82.30;97682.55;1742133;82;25616;-75
2022/11/16 02:21:18;;;;;;;51.02;27.32;;;;;;;9.18;82.23;97677.69;1742172;82;25456;-77
2022/11/16 02:24:10;;;;;;;47.73;25.80;;;;;;;9.26;82.25;97671.39;1742231;82;28192;-76
2022/11/16 02:27:34;;;;;;;47.40;24.85;;;;;;;9.34;81.92;97671.11;1742155;82;25459;-77
2022/11/16 02:30:03;;;;;;;48.73;25.25;;;;;;;9.26;81.72;97663.75;1742101;82;25499;-76
2022/11/16 02:32:49;;;;;;;47.83;24.80;;;;;;;9.14;82.04;97663.90;1742290;82;26193;-77
2022/11/16 02:35:27;;;;;;;47.35;26.00;;;;;;;9.09;82.46;97668.17;1732732;82;25538;-77
2022/11/16 02:38:10;;;;;;;48.80;25.30;;;;;;;9.06;82.45;97668.83;1741345;82;27464;-77
2022/11/16 02:40:42;;;;;;;49.20;26.15;;;;;;;9.06;82.48;97667.45;1742009;82;25490;-76
2022/11/16 02:43:12;;;;;;;45.08;25.82;;;;;;;9.00;82.45;97666.84;1742544;82;25487;-72
2022/11/16 02:45:42;;;;;;;45.78;25.57;;;;;;;8.94;82.68;97659.96;1740922;82;25624;-76
2022/11/16 02:48:14;;;;;;;50.98;27.10;;;;;;;8.92;82.74;97670.41;1737817;82;25624;-77
2022/11/16 02:50:42;;;;;;;45.20;25.43;;;;;;;8.94;82.78;97672.25;1737511;82;28351;-76
2022/11/16 02:53:08;;;;;;;50.65;26.48;;;;;;;8.94;82.75;97659.96;1737766;82;25628;-72
2022/11/16 02:55:36;;;;;;;43.23;25.37;;;;;;;8.95;82.71;97663.50;1737980;82;25553;-76
2022/11/16 02:58:06;;;;;;;46.83;25.50;;;;;;;8.96;82.65;97663.73;1718995;82;25487;-74
2022/11/16 03:00:45;;;;;;;46.28;26.07;;;;;;;8.94;82.85;97665.42;1737654;82;25415;-74
2022/11/16 03:03:23;;;;;;;47.88;27.20;;;;;;;8.93;82.77;97661.66;1737446;82;28674;-74
2022/11/16 03:06:13;;;;;;;48.87;25.92;;;;;;;8.86;82.94;97661.59;1737195;82;27261;-77
2022/11/16 03:08:47;;;;;;;45.65;25.72;;;;;;;8.82;83.14;97664.75;1737104;82;25452;-75
2022/11/16 03:14:10;;;;;;;48.90;25.48;;;;;;;8.75;83.12;97661.14;1737572;82;25709;-76
2022/11/16 03:16:40;;;;;;;45.12;25.72;;;;;;;8.73;83.20;97660.69;1738014;81;27483;-75
2022/11/16 03:19:11;;;;;;;47.60;26.05;;;;;;;8.72;83.27;97666.47;1737550;82;25711;-76
2022/11/16 03:21:49;;;;;;;;;;;;;;;8.74;83.25;97658.73;1740511;81;25680;-77
2022/11/16 03:24:16;;;;;;;41.50;23.45;;;;;;;8.74;83.10;97660.10;1737945;82;25456;-76
2022/11/16 03:27:08;;;;;;;46.48;23.85;;;;;;;8.73;83.24;97655.22;1737515;82;25702;-75
2022/11/16 03:30:09;;;;;;;41.25;23.30;;;;;;;8.74;83.42;97660.91;1737186;82;26064;-75
2022/11/16 03:33:10;;;;;;;39.75;21.62;;;;;;;8.73;83.31;97657.14;1737447;82;25429;-75
2022/11/16 03:36:03;;;;;;;39.88;21.12;;;;;;;8.76;83.29;97650.47;1737627;82;25625;-76
2022/11/16 03:38:32;;;;;;;35.70;19.77;;;;;;;8.75;83.61;97650.22;1737491;82;26057;-77
2022/11/16 03:41:06;;;;;;;39.15;21.60;;;;;;;8.72;83.54;97644.04;1737896;82;25630;-76
2022/11/16 03:43:33;;;;;;;40.38;20.62;;;;;;;8.69;83.52;97639.81;1737811;82;27327;-76
2022/11/16 03:46:00;;;;;;;37.90;21.45;;;;;;;8.65;83.57;97635.00;1738524;82;25321;-71
2022/11/16 03:48:35;;;;;;;40.45;20.32;;;;;;;8.64;83.72;97635.33;1743068;82;25650;-76
2022/11/16 03:51:03;;;;;;;39.15;20.48;;;;;;;8.62;83.90;97637.02;1742660;81;25430;-77
2022/11/16 03:53:29;;;;;;;36.30;20.92;;;;;;;8.63;83.78;97631.78;1742887;81;25597;-77
2022/11/16 03:55:56;;;;;;;34.80;19.67;;;;;;;8.68;83.73;97627.27;1742189;82;27511;-76
2022/11/16 03:58:22;;;;;;;36.63;20.43;;;;;;;8.71;83.62;97626.05;1742461;81;25448;-74
2022/11/16 04:00:55;;;;;;;38.75;20.10;;;;;;;8.72;83.60;97622.19;1742126;82;25503;-76
2022/11/16 04:03:29;;;;;;;31.73;18.42;;;;;;;8.78;83.54;97622.83;1742689;81;25618;-74
2022/11/16 04:25:50;;;;;;;38.15;20.27;;;;;;;8.68;83.97;97593.13;1742147;82;25577;-76
2022/11/16 04:28:20;;;;;;;39.88;21.65;;;;;;;8.67;83.87;97588.24;1742623;82;25444;-77
2022/11/16 04:39:04;;;;;;;514.73;180.45;;;;;;;8.94;83.72;97575.25;1742070;82;25657;-74
2022/11/16 04:44:17;;;;;;;378.45;102.17;;;;;;;9.03;83.18;97569.18;1742488;82;25649;-77
2022/11/16 04:49:28;;;;;;;109.07;35.85;;;;;;;9.04;83.28;97574.87;1742216;82;25604;-77
2022/11/16 04:51:55;;;;;;;117.10;35.13;;;;;;;9.06;83.10;97573.17;1741998;82;25652;-77
2022/11/16 04:54:21;;;;;;;207.12;53.83;;;;;;;9.03;83.13;97568.37;1742199;81;25453;-77
2022/11/16 04:56:47;;;;;;;225.60;55.60;;;;;;;9.03;83.16;97562.34;1742157;82;25505;-78
2022/11/16 04:59:14;;;;;;;146.98;42.33;;;;;;;9.03;83.18;97554.15;1742321;82;25581;-77
2022/11/16 05:04:25;;;;;;;41.05;20.88;;;;;;;9.00;82.97;97545.24;1742115;82;25484;-76
2022/11/16 05:06:52;;;;;;;38.48;18.77;;;;;;;8.99;82.95;97551.04;1742115;81;25490;-77
2022/11/16 05:09:18;;;;;;;109.00;31.68;;;;;;;8.98;82.98;97543.40;1742272;81;25693;-78
2022/11/16 05:11:45;;;;;;;201.42;51.85;;;;;;;8.97;82.95;97543.17;1742255;81;25765;-77
2022/11/16 05:14:11;;;;;;;347.23;79.70;;;;;;;9.01;83.16;97544.69;1742125;81;27453;-77
2022/11/16 05:16:37;;;;;;;241.75;59.00;;;;;;;9.03;82.91;97547.88;1742049;82;25685;-77
2022/11/16 05:21:49;;;;;;;308.52;73.90;;;;;;;9.06;82.87;97547.21;1742090;82;25579;-76
2022/11/16 05:24:33;;;;;;;272.80;66.40;;;;;;;9.03;83.00;97543.22;1742150;82;25628;-77
2022/11/16 05:27:10;;;;;;;104.17;32.20;;;;;;;9.01;83.05;97541.37;1742337;82;27602;-78
2022/11/16 05:29:37;;;;;;;46.92;20.25;;;;;;;8.98;83.00;97542.61;1741919;81;25588;-77
2022/11/16 05:32:06;;;;;;;41.85;18.65;;;;;;;8.92;82.93;97543.34;1742072;82;25700;-76
2022/11/16 05:34:33;;;;;;;45.90;20.82;;;;;;;8.84;83.07;97541.48;1742403;82;25427;-73
2022/11/16 05:36:59;;;;;;;31.68;17.30;;;;;;;8.78;83.17;97534.83;1742320;82;25499;-77
2022/11/16 05:39:26;;;;;;;37.28;19.57;;;;;;;8.74;83.28;97531.16;1742261;82;27514;-77
2022/11/16 05:41:53;;;;;;;40.40;19.65;;;;;;;8.70;83.49;97526.69;1742316;82;25638;-75
2022/11/16 05:44:20;;;;;;;35.05;17.52;;;;;;;8.71;83.47;97531.82;1742536;82;25695;-77
2022/11/16 05:46:47;;;;;;;94.75;31.15;;;;;;;8.69;83.48;97530.56;1742068;82;25612;-75
2022/11/16 05:49:13;;;;;;;69.27;25.68;;;;;;;8.69;83.41;97538.75;1742461;82;25656;-77
2022/11/16 05:51:42;;;;;;;36.80;17.87;;;;;;;8.72;83.52;97534.78;1742126;82;27456;-76
2022/11/16 05:54:12;;;;;;;31.82;17.42;;;;;;;8.73;83.34;97535.03;1742312;81;25636;-78
2022/11/16 05:56:39;;;;;;;50.33;23.70;;;;;;;8.73;83.34;97538.32;1742572;82;25660;-78
2022/11/16 05:59:05;;;;;;;37.28;18.30;;;;;;;8.73;83.42;97532.86;1742348;82;25921;-77
2022/11/16 06:01:32;;;;;;;37.28;18.42;;;;;;;8.68;83.51;97527.02;1741989;82;25720;-77
2022/11/16 06:04:02;;;;;;;30.10;14.78;;;;;;;8.64;83.50;97536.42;1742096;81;27509;-78
2022/11/16 06:06:28;;;;;;;40.48;17.80;;;;;;;8.60;83.72;97531.39;1742265;82;25669;-75
2022/11/16 06:08:54;;;;;;;33.98;15.53;;;;;;;8.54;83.82;97532.70;1742524;81;25610;-78
2022/11/16 06:11:21;;;;;;;44.10;18.27;;;;;;;8.49;84.04;97532.28;1742359;81;25617;-77
2022/11/16 06:13:47;;;;;;;75.12;25.70;;;;;;;8.46;84.10;97532.94;1742100;82;25664;-77
2022/11/16 06:16:14;;;;;;;78.12;28.05;;;;;;;8.47;84.15;97542.75;1742298;81;27276;-77
2022/11/16 06:18:44;;;;;;;34.03;18.55;;;;;;;8.49;84.14;97532.88;1742134;81;25657;-78
2022/11/16 06:21:12;;;;;;;75.70;27.60;;;;;;;8.50;84.07;97525.72;1743064;82;25545;-78
2022/11/16 06:23:38;;;;;;;79.35;26.45;;;;;;;8.55;84.04;97526.69;1742458;82;25589;-77
2022/11/16 06:26:06;;;;;;;61.00;24.35;;;;;;;8.53;83.95;97526.39;1742720;81;25455;-73
2022/11/16 06:28:33;;;;;;;56.58;24.02;;;;;;;8.53;84.02;97526.98;1742708;82;27443;-72
2022/11/16 06:30:59;;;;;;;32.63;15.98;;;;;;;8.51;84.06;97531.96;1742434;82;25904;-77
2022/11/16 06:33:26;;;;;;;39.05;18.85;;;;;;;8.45;84.34;97523.71;1742542;81;25676;-78
2022/11/16 06:35:53;;;;;;;30.65;17.73;;;;;;;8.43;84.31;97523.25;1742220;82;25675;-73
2022/11/16 06:38:19;;;;;;;41.83;22.25;;;;;;;8.44;84.31;97525.66;1742279;81;25688;-77
2022/11/16 06:40:51;;;;;;;85.17;29.37;;;;;;;8.46;84.29;97522.60;1742598;82;28650;-77
2022/11/16 06:43:18;;;;;;;67.05;25.35;;;;;;;8.49;84.22;97521.95;1738157;82;25625;-77
2022/11/16 06:45:50;;;;;;;68.95;25.52;;;;;;;8.49;84.20;97526.05;1742770;82;25422;-77
2022/11/16 06:48:18;;;;;;;57.70;24.23;;;;;;;8.51;84.16;97530.59;1712639;82;25663;-78
2022/11/16 06:50:47;;;;;;;68.47;27.07;;;;;;;8.51;84.11;97529.23;1706534;83;25668;-78
2022/11/16 06:53:13;;;;;;;71.00;26.87;;;;;;;8.50;84.25;97524.91;1706727;84;28421;-73
2022/11/16 06:55:40;;;;;;;41.15;20.72;;;;;;;8.51;84.20;97528.67;1706510;83;25627;-74
2022/11/16 06:58:06;;;;;;;37.95;19.80;;;;;;;8.48;84.08;97514.31;1706873;83;25616;-72
2022/11/16 07:00:32;;;;;;;44.48;22.67;;;;;;;8.46;84.16;97517.92;1706888;84;25440;-76
2022/11/16 07:03:03;;;;;;;46.25;21.23;;;;;;;8.43;84.37;97515.06;1681232;83;25736;-75
2022/11/16 07:05:30;;;;;;;;;;;;;;;8.43;84.31;97516.43;1692813;84;28628;-77
2022/11/16 07:07:56;;;;;;;53.00;22.70;;;;;;;8.40;84.38;97517.86;1677881;85;25641;-73
2022/11/16 07:10:23;;;;;;;71.62;27.70;;;;;;;8.38;84.31;97514.09;1678036;85;25728;-74
2022/11/16 07:12:50;;;;;;;88.58;30.27;;;;;;;8.39;84.46;97513.55;1677807;84;25451;-78
2022/11/16 07:15:17;;;;;;;63.30;25.17;;;;;;;8.45;84.48;97514.97;1674176;85;26371;-74
2022/11/16 07:17:43;;;;;;;58.98;24.67;;;;;;;8.52;84.37;97515.25;1678098;85;27939;-74
2022/11/16 07:20:10;;;;;;;65.35;32.23;;;;;;;8.58;84.15;97506.91;1677678;85;25747;-76
2022/11/16 07:22:37;;;;;;;45.03;22.48;;;;;;;8.61;84.04;97507.63;1677963;84;25715;-76
2022/11/16 07:25:04;;;;;;;33.88;18.05;;;;;;;8.65;84.13;97512.09;1677987;85;25674;-75
2022/11/16 07:27:31;;;;;;;42.70;20.17;;;;;;;8.67;83.85;97506.30;1678388;85;25752;-78
2022/11/16 07:29:57;;;;;;;39.63;19.62;;;;;;;8.66;84.00;97506.86;1678123;85;27587;-75
2022/11/16 07:32:23;;;;;;;37.63;18.77;;;;;;;8.66;84.15;97497.30;1677817;85;25530;-75
2022/11/16 07:34:50;;;;;;;49.53;22.62;;;;;;;8.67;83.95;97499.48;1678319;84;25645;-77
2022/11/16 07:37:16;;;;;;;83.00;33.42;;;;;;;8.68;84.19;97495.61;1678558;85;26132;-77
2022/11/16 07:39:44;;;;;;;46.37;20.85;;;;;;;8.71;84.32;97493.58;1678003;85;25589;-76
2022/11/16 07:42:11;;;;;;;53.48;24.45;;;;;;;8.73;84.11;97502.26;1678549;84;27497;-77
2022/11/16 07:44:38;;;;;;;65.57;28.02;;;;;;;8.71;84.17;97497.69;1678087;85;25813;-77
2022/11/16 07:47:05;;;;;;;56.80;25.90;;;;;;;8.74;84.24;97498.95;1684986;83;25664;-77
2022/11/16 07:49:32;;;;;;;37.60;18.65;;;;;;;8.74;84.17;97490.75;1712548;83;25747;-78
2022/11/16 07:51:58;;;;;;;42.60;20.55;;;;;;;8.71;84.24;97488.67;1712502;83;25478;-70
2022/11/16 07:54:25;;;;;;;52.55;23.92;;;;;;;8.64;84.37;97485.90;1712984;83;27377;-76
2022/11/16 07:56:51;;;;;;;53.98;26.25;;;;;;;8.65;84.67;97483.98;1712886;83;25740;-77
2022/11/16 07:59:18;;;;;;;48.80;24.05;;;;;;;8.65;84.72;97479.33;1712478;83;25649;-76
2022/11/16 08:01:46;;;;;;;34.78;18.60;;;;;;;8.72;84.80;97483.47;1712598;83;25487;-75
2022/11/16 08:04:14;;;;;;;47.98;23.05;;;;;;;8.72;84.65;97480.16;1712960;83;25596;-76
2022/11/16 08:06:40;;;;;;;52.70;25.37;;;;;;;8.73;84.65;97471.41;1712763;83;27500;-76
2022/11/16 08:09:08;;;;;;;80.77;36.45;;;;;;;8.72;84.65;97473.33;1712426;83;25631;-76
2022/11/16 08:11:34;;;;;;;43.20;21.52;;;;;;;8.74;84.70;97468.89;1712513;83;25636;-76
2022/11/16 08:14:01;;;;;;;42.70;21.55;;;;;;;8.75;84.66;97467.20;1712758;83;25675;-73
2022/11/16 08:16:27;;;;;;;43.25;22.55;;;;;;;8.81;84.99;97473.27;1709204;83;25848;-76
2022/11/16 08:18:54;;;;;;;61.80;28.85;;;;;;;8.84;84.85;97469.09;1712605;83;27443;-78
2022/11/16 08:21:20;;;;;;;49.27;25.45;;;;;;;8.84;85.14;97476.70;1712533;83;25639;-78
2022/11/16 08:23:47;;;;;;;49.63;25.85;;;;;;;8.83;85.22;97467.47;1712730;83;25757;-76
2022/11/16 08:26:17;;;;;;;45.95;24.90;;;;;;;8.82;85.34;97473.52;1712468;83;25718;-77
2022/11/16 08:28:46;;;;;;;52.17;24.47;;;;;;;8.84;85.48;97469.09;1712915;83;25433;-70
2022/11/16 08:31:17;;;;;;;42.78;22.30;;;;;;;8.83;85.25;97466.10;1712460;83;29499;-75
2022/11/16 08:33:43;;;;;;;;;;;;;;;8.83;85.21;97459.27;1715302;83;25619;-74
2022/11/16 08:36:15;;;;;;;46.88;24.27;;;;;;;8.83;85.31;97467.47;1712551;83;25607;-77
2022/11/16 08:38:39;;;;;;;46.77;25.92;;;;;;;8.85;85.40;97458.39;1712750;83;25690;-76
2022/11/16 08:41:07;;;;;;;49.38;25.05;;;;;;;8.92;85.14;97462.75;1712685;83;25624;-73
2022/11/16 08:43:34;;;;;;;47.83;24.43;;;;;;;8.94;84.89;97462.42;1712468;83;27563;-77
2022/11/16 08:46:01;;;;;;;51.37;23.38;;;;;;;8.98;84.99;97467.47;1712412;83;25568;-74
2022/11/16 08:48:28;;;;;;;46.60;23.85;;;;;;;9.04;85.11;97468.88;1709523;83;25510;-76
2022/11/16 08:50:54;;;;;;;49.15;26.70;;;;;;;9.04;84.84;97469.66;1708331;84;25998;-77
2022/11/16 08:53:21;;;;;;;49.45;25.12;;;;;;;9.07;85.01;97465.45;1707877;84;25675;-75
2022/11/16 08:55:47;;;;;;;43.83;22.82;;;;;;;9.14;85.00;97465.73;1708376;83;27836;-77
2022/11/16 08:58:13;;;;;;;45.60;23.35;;;;;;;9.14;84.60;97462.20;1708108;83;25467;-77
2022/11/16 09:00:40;;;;;;;48.78;26.33;;;;;;;9.11;84.65;97458.20;1708218;83;25670;-77
2022/11/16 09:03:06;;;;;;;46.30;25.17;;;;;;;9.14;84.73;97463.56;1708327;83;25850;-75
2022/11/16 09:05:32;;;;;;;39.55;22.10;;;;;;;9.18;84.80;97460.97;1708325;84;25491;-75
2022/11/16 09:07:59;;;;;;;35.90;20.20;;;;;;;9.21;84.72;97463.04;1707998;84;28398;-78
2022/11/16 09:10:25;;;;;;;37.55;19.80;;;;;;;9.22;84.77;97461.89;1707927;84;25747;-76
2022/11/16 09:12:52;;;;;;;40.50;22.10;;;;;;;9.22;84.69;97461.89;1708346;84;25656;-77
2022/11/16 09:15:19;;;;;;;36.48;20.48;;;;;;;9.28;84.66;97462.73;1707980;83;25718;-78
2022/11/16 09:17:46;;;;;;;31.93;17.82;;;;;;;9.35;84.62;97451.24;1708127;84;25493;-77
2022/11/16 09:20:13;;;;;;;34.85;17.35;;;;;;;9.43;84.26;97458.33;1708042;83;27401;-77
2022/11/16 09:22:39;;;;;;;32.83;18.40;;;;;;;9.50;83.78;97453.91;1708203;84;25600;-77
2022/11/16 09:25:08;;;;;;;30.35;16.57;;;;;;;9.57;84.10;97444.37;1707873;83;25674;-77
2022/11/16 09:27:35;;;;;;;34.13;17.25;;;;;;;9.58;83.97;97456.34;1708218;83;25489;-77
2022/11/16 09:30:01;;;;;;;30.77;16.75;;;;;;;9.61;83.84;97449.39;1707904;84;25404;-77
2022/11/16 09:32:28;;;;;;;28.67;16.90;;;;;;;9.61;83.74;97444.73;1708586;83;27509;-77
2022/11/16 09:34:54;;;;;;;27.13;15.75;;;;;;;9.64;83.48;97446.78;1708000;83;25465;-77
2022/11/16 09:37:21;;;;;;;29.05;16.05;;;;;;;9.65;83.03;97443.49;1707872;83;25779;-77
2022/11/16 09:39:47;;;;;;;27.48;14.55;;;;;;;9.63;83.00;97445.20;1707803;84;25904;-73
2022/11/16 09:42:48;;;;;;;30.45;15.13;;;;;;;9.61;83.22;97441.98;1707855;83;25656;-77
2022/11/16 09:45:38;;;;;;;24.13;13.63;;;;;;;9.65;83.11;97444.27;1707875;83;27429;-76
2022/11/16 09:48:10;;;;;;;23.57;13.85;;;;;;;9.69;82.42;97440.30;1709508;83;25906;-77
2022/11/16 09:50:53;;;;;;;24.43;14.13;;;;;;;9.69;82.22;97443.05;1712513;83;25628;-77
2022/11/16 09:53:35;;;;;;;22.90;14.18;;;;;;;9.72;82.28;97437.45;1712063;83;26688;-77
2022/11/16 09:56:18;;;;;;;26.27;15.10;;;;;;;9.77;82.25;97438.62;1712514;83;25485;-72
2022/11/16 09:59:09;;;;;;;32.13;17.95;;;;;;;9.77;81.75;97427.67;1712901;83;26969;-72
2022/11/16 10:02:00;;;;;;;32.40;17.37;;;;;;;9.78;82.22;97430.63;1712787;83;25844;-77
2022/11/16 10:04:56;;;;;;;35.45;18.15;;;;;;;9.81;82.51;97420.97;1711676;83;25728;-73
2022/11/16 10:07:33;;;;;;;30.88;17.87;;;;;;;9.81;82.40;97419.59;1644435;87;25841;-76
2022/11/16 10:10:00;;;;;;;32.55;18.40;;;;;;;9.79;82.31;97418.57;1645406;87;25504;-78
2022/11/16 10:12:44;;;;;;;33.20;16.70;;;;;;;9.78;82.07;97414.22;1645665;87;27305;-77
2022/11/16 10:15:59;;;;;;;28.27;16.05;;;;;;;9.74;82.02;97419.58;1644776;87;25488;-72
2022/11/16 10:18:36;;;;;;;32.17;17.48;;;;;;;9.72;82.09;97418.30;1602575;89;25861;-78
2022/11/16 10:21:20;;;;;;;32.55;18.60;;;;;;;9.70;82.12;97402.81;1602930;89;25814;-75
2022/11/16 10:23:52;;;;;;;34.58;19.52;;;;;;;9.73;82.45;97402.92;1600709;89;25740;-74
2022/11/16 10:26:43;;;;;;;34.45;19.10;;;;;;;9.69;82.39;97396.53;1600995;89;27799;-77
2022/11/16 10:29:42;;;;;;;34.58;20.45;;;;;;;9.69;82.49;97404.74;1607614;89;25782;-76
2022/11/16 10:32:19;;;;;;;33.70;19.35;;;;;;;9.70;82.70;97399.49;1607827;89;25814;-74
2022/11/16 10:34:57;;;;;;;39.90;20.97;;;;;;;9.68;82.69;97394.95;1607817;89;26194;-75
2022/11/16 10:37:29;;;;;;;35.65;20.05;;;;;;;9.61;82.85;97399.59;1607653;89;25630;-75
2022/11/16 10:39:55;;;;;;;34.58;19.30;;;;;;;9.60;82.88;97391.17;1607392;89;27422;-75
2022/11/16 10:42:30;;;;;;;39.55;21.10;;;;;;;9.59;83.27;97392.31;1609695;87;25516;-76
2022/11/16 10:45:13;;;;;;;43.00;21.37;;;;;;;9.56;83.07;97395.73;1624709;88;25829;-77
2022/11/16 10:47:54;;;;;;;73.57;36.77;;;;;;;9.54;83.64;97396.06;1622169;88;25742;-73
2022/11/16 10:50:37;;;;;;;58.28;31.30;;;;;;;9.51;83.29;97391.27;1624755;88;25862;-74
2022/11/16 10:53:04;;;;;;;39.67;21.37;;;;;;;9.54;83.95;97385.69;1624343;88;29596;-75
2022/11/16 10:55:30;;;;;;;36.63;19.73;;;;;;;9.56;83.71;97383.42;1625078;88;25884;-74
2022/11/16 10:58:05;;;;;;;29.60;16.12;;;;;;;9.54;84.01;97379.66;1625988;88;25531;-72
2022/11/16 11:00:39;;;;;;;18.92;11.48;;;;;;;9.54;83.63;97382.39;1629832;86;25810;-74
2022/11/16 11:03:08;;;;;;;19.70;11.40;;;;;;;9.53;83.76;97385.46;1642059;86;25970;-74
2022/11/16 11:05:35;;;;;;;21.80;12.82;;;;;;;9.51;83.60;97376.23;1633507;86;27421;-77
2022/11/16 11:08:11;;;;;;;26.07;14.93;;;;;;;9.52;83.74;97375.08;1629069;86;25514;-74
2022/11/16 11:10:41;;;;;;;27.95;13.70;;;;;;;9.52;83.51;97376.45;1622830;88;26471;-77
2022/11/16 11:13:16;;;;;;;28.20;14.45;;;;;;;9.52;83.85;97376.45;1625699;88;25702;-74
2022/11/16 11:15:43;;;;;;;21.93;12.73;;;;;;;9.53;83.72;97382.14;1626520;86;25667;-73
2022/11/16 11:18:26;;;;;;;28.10;14.87;;;;;;;9.50;83.95;97377.34;1648118;86;27425;-72
2022/11/16 11:21:21;;;;;;;26.95;14.90;;;;;;;9.45;83.95;97372.11;1652653;86;25913;-73
2022/11/16 11:23:52;;;;;;;44.50;24.98;;;;;;;9.46;84.29;97370.16;1598499;89;25675;-78
2022/11/16 11:26:35;;;;;;;37.00;23.65;;;;;;;9.48;84.37;97371.44;1598813;89;32362;-76
2022/11/16 11:29:05;;;;;;;26.95;15.93;;;;;;;9.48;84.36;97366.52;1625848;88;25536;-76
2022/11/16 11:31:45;;;;;;;26.90;16.93;;;;;;;9.48;84.62;97375.53;1615753;88;27506;-76
2022/11/16 11:34:25;;;;;;;30.15;15.32;;;;;;;9.48;84.53;97371.44;1616031;88;25658;-77
2022/11/16 11:36:59;;;;;;;27.67;15.80;;;;;;;9.49;84.81;97373.02;1615626;88;25764;-78
2022/11/16 11:39:36;;;;;;;26.45;15.08;;;;;;;9.46;84.68;97375.62;1616147;88;25896;-77
2022/11/16 11:42:19;;;;;;;27.50;15.15;;;;;;;9.47;85.16;97369.03;1616117;88;25861;-79
2022/11/16 11:44:59;;;;;;;27.52;14.68;;;;;;;9.43;85.17;97371.64;1616120;88;27383;-80
2022/11/16 11:47:43;;;;;;;30.75;17.25;;;;;;;9.38;85.38;97363.64;1613465;88;25682;-73
2022/11/16 11:50:32;;;;;;;27.13;15.60;;;;;;;9.35;85.77;97363.75;1622319;88;25774;-73
2022/11/16 11:53:12;;;;;;;28.17;15.23;;;;;;;9.26;86.13;97367.14;1617317;88;25728;-73
2022/11/16 11:55:39;;;;;;;29.40;16.60;;;;;;;9.21;86.13;97351.75;1629705;86;25931;-68
2022/11/16 11:58:10;;;;;;;30.45;15.70;;;;;;;9.20;86.46;97356.99;1660761;85;28025;-68
2022/11/16 12:00:53;;;;;;;31.45;17.23;;;;;;;9.21;86.42;97357.22;1682549;85;26169;-69
2022/11/16 12:03:40;;;;;;;33.05;17.57;;;;;;;9.23;86.62;97349.48;1639727;87;25515;-71
2022/11/16 12:06:36;;;;;;;31.85;17.80;;;;;;;9.31;86.59;97349.17;1634516;87;25733;-73
2022/11/16 12:09:16;;;;;;;31.65;17.23;;;;;;;9.29;86.40;97348.14;1639784;87;25693;-68
2022/11/16 12:12:10;;;;;;;32.38;17.42;;;;;;;9.23;86.38;97342.66;1639735;87;27417;-67
2022/11/16 12:14:54;;;;;;;33.75;17.80;;;;;;;9.23;86.70;97341.28;1639800;87;25833;-66
2022/11/16 12:17:41;;;;;;;35.63;18.75;;;;;;;9.22;86.73;97336.97;1639838;87;25674;-66
2022/11/16 12:20:30;;;;;;;73.12;34.23;;;;;;;9.21;86.64;97341.40;1639948;87;26326;-68
2022/11/16 12:23:16;;;;;;;38.42;20.70;;;;;;;9.18;86.91;97334.66;1638618;87;25746;-66
2022/11/16 12:26:21;;;;;;;35.73;17.77;;;;;;;9.16;86.69;97335.58;1639670;87;27622;-66
2022/11/16 12:29:36;;;;;;;38.48;20.25;;;;;;;9.15;86.57;97335.33;1639544;87;25496;-66
2022/11/16 12:32:24;;;;;;;40.30;20.10;;;;;;;9.09;86.72;97332.57;1599188;89;25756;-66
2022/11/16 12:35:08;;;;;;;46.48;20.95;;;;;;;9.06;86.92;97334.64;1598398;89;26201;-66
2022/11/16 12:37:49;;;;;;;40.58;20.08;;;;;;;9.03;86.97;97334.17;1599203;89;25618;-66
2022/11/16 12:40:55;;;;;;;44.33;23.20;;;;;;;8.97;86.88;97336.88;1599705;88;27555;-66